sensor_id;sensor_type;location;lat;lon;timestamp;temperature;humidity
67598;DHT22;62026;39.230;9.122;2023-02-10T00:01:28;7.60;65.10
67598;DHT22;62026;39.230;9.122;2023-02-10T00:03:55;7.60;65.30
67598;DHT22;62026;39.230;9.122;2023-02-10T00:06:23;7.50;65.20
67598;DHT22;62026;39.230;9.122;2023-02-10T00:08:53;7.50;65.70
67598;DHT22;62026;39.230;9.122;2023-02-10T00:11:22;7.50;65.90
67598;DHT22;62026;39.230;9.122;2023-02-10T00:14:08;7.50;66.20
67598;DHT22;62026;39.230;9.122;2023-02-10T00:16:35;7.50;66.50
67598;DHT22;62026;39.230;9.122;2023-02-10T00:19:01;7.40;66.20
67598;DHT22;62026;39.230;9.122;2023-02-10T00:21:27;7.40;66.70
67598;DHT22;62026;39.230;9.122;2023-02-10T00:23:53;7.70;66.10
67598;DHT22;62026;39.230;9.122;2023-02-10T00:26:19;7.90;65.10
67598;DHT22;62026;39.230;9.122;2023-02-10T00:28:45;8.00;64.20
67598;DHT22;62026;39.230;9.122;2023-02-10T00:31:13;8.10;63.90
67598;DHT22;62026;39.230;9.122;2023-02-10T00:33:41;8.20;63.80
67598;DHT22;62026;39.230;9.122;2023-02-10T00:36:09;8.20;64.20
67598;DHT22;62026;39.230;9.122;2023-02-10T00:38:37;8.30;64.30
67598;DHT22;62026;39.230;9.122;2023-02-10T00:41:05;8.30;64.50
67598;DHT22;62026;39.230;9.122;2023-02-10T00:43:33;8.30;64.30
67598;DHT22;62026;39.230;9.122;2023-02-10T00:46:00;8.30;64.10
67598;DHT22;62026;39.230;9.122;2023-02-10T00:48:26;8.30;64.10
67598;DHT22;62026;39.230;9.122;2023-02-10T00:50:52;8.30;63.90
67598;DHT22;62026;39.230;9.122;2023-02-10T00:53:18;8.20;63.90
67598;DHT22;62026;39.230;9.122;2023-02-10T00:55:44;8.20;63.90
67598;DHT22;62026;39.230;9.122;2023-02-10T00:58:10;8.20;64.00
67598;DHT22;62026;39.230;9.122;2023-02-10T01:00:36;8.20;64.10
67598;DHT22;62026;39.230;9.122;2023-02-10T01:03:02;8.30;63.90
67598;DHT22;62026;39.230;9.122;2023-02-10T01:05:28;8.30;63.90
67598;DHT22;62026;39.230;9.122;2023-02-10T01:07:54;8.30;64.30
67598;DHT22;62026;39.230;9.122;2023-02-10T01:10:21;8.30;64.00
67598;DHT22;62026;39.230;9.122;2023-02-10T01:12:47;8.30;63.80
67598;DHT22;62026;39.230;9.122;2023-02-10T01:15:14;8.20;63.80
67598;DHT22;62026;39.230;9.122;2023-02-10T01:17:40;8.20;63.80
67598;DHT22;62026;39.230;9.122;2023-02-10T01:20:06;8.20;63.80
67598;DHT22;62026;39.230;9.122;2023-02-10T01:22:34;8.20;63.90
67598;DHT22;62026;39.230;9.122;2023-02-10T01:25:01;8.20;63.70
67598;DHT22;62026;39.230;9.122;2023-02-10T01:27:28;8.20;63.60
67598;DHT22;62026;39.230;9.122;2023-02-10T01:29:54;8.20;63.70
67598;DHT22;62026;39.230;9.122;2023-02-10T01:32:20;8.20;63.80
67598;DHT22;62026;39.230;9.122;2023-02-10T01:34:46;8.20;63.50
67598;DHT22;62026;39.230;9.122;2023-02-10T01:37:12;8.20;63.10
67598;DHT22;62026;39.230;9.122;2023-02-10T01:39:38;8.20;63.20
67598;DHT22;62026;39.230;9.122;2023-02-10T01:42:04;8.20;62.80
67598;DHT22;62026;39.230;9.122;2023-02-10T01:46:58;8.20;62.80
67598;DHT22;62026;39.230;9.122;2023-02-10T01:49:31;8.10;62.70
67598;DHT22;62026;39.230;9.122;2023-02-10T01:52:05;8.10;62.60
67598;DHT22;62026;39.230;9.122;2023-02-10T01:55:07;8.10;62.70
67598;DHT22;62026;39.230;9.122;2023-02-10T01:57:35;8.00;63.20
67598;DHT22;62026;39.230;9.122;2023-02-10T02:00:05;8.00;62.50
67598;DHT22;62026;39.230;9.122;2023-02-10T02:02:39;8.00;62.80
67598;DHT22;62026;39.230;9.122;2023-02-10T02:05:32;8.00;62.40
67598;DHT22;62026;39.230;9.122;2023-02-10T02:11:11;8.10;61.50
67598;DHT22;62026;39.230;9.122;2023-02-10T02:34:40;8.00;62.80
67598;DHT22;62026;39.230;9.122;2023-02-10T02:37:23;8.00;62.20
67598;DHT22;62026;39.230;9.122;2023-02-10T02:39:54;7.90;62.70
67598;DHT22;62026;39.230;9.122;2023-02-10T02:42:24;7.80;63.00
67598;DHT22;62026;39.230;9.122;2023-02-10T02:50:34;7.80;63.00
67598;DHT22;62026;39.230;9.122;2023-02-10T02:56:32;7.80;63.00
67598;DHT22;62026;39.230;9.122;2023-02-10T02:59:23;7.80;62.70
67598;DHT22;62026;39.230;9.122;2023-02-10T03:02:01;7.80;62.60
67598;DHT22;62026;39.230;9.122;2023-02-10T03:04:34;7.80;62.50
67598;DHT22;62026;39.230;9.122;2023-02-10T03:07:01;7.90;62.00
67598;DHT22;62026;39.230;9.122;2023-02-10T03:09:28;7.90;61.20
67598;DHT22;62026;39.230;9.122;2023-02-10T03:11:55;8.00;61.30
67598;DHT22;62026;39.230;9.122;2023-02-10T03:14:21;8.00;61.20
67598;DHT22;62026;39.230;9.122;2023-02-10T03:16:47;8.10;60.70
67598;DHT22;62026;39.230;9.122;2023-02-10T03:19:13;8.10;60.40
67598;DHT22;62026;39.230;9.122;2023-02-10T03:21:39;8.10;60.10
67598;DHT22;62026;39.230;9.122;2023-02-10T03:24:05;8.10;59.80
67598;DHT22;62026;39.230;9.122;2023-02-10T03:26:31;8.20;60.30
67598;DHT22;62026;39.230;9.122;2023-02-10T03:28:57;8.20;60.50
67598;DHT22;62026;39.230;9.122;2023-02-10T03:31:23;8.20;60.30
67598;DHT22;62026;39.230;9.122;2023-02-10T03:33:49;8.20;59.70
67598;DHT22;62026;39.230;9.122;2023-02-10T03:36:15;8.10;60.00
67598;DHT22;62026;39.230;9.122;2023-02-10T03:38:42;8.10;60.20
67598;DHT22;62026;39.230;9.122;2023-02-10T03:41:08;8.00;59.80
67598;DHT22;62026;39.230;9.122;2023-02-10T03:43:34;8.00;60.10
67598;DHT22;62026;39.230;9.122;2023-02-10T03:46:01;8.00;59.80
67598;DHT22;62026;39.230;9.122;2023-02-10T03:48:29;8.00;59.60
67598;DHT22;62026;39.230;9.122;2023-02-10T03:51:02;8.00;59.30
67598;DHT22;62026;39.230;9.122;2023-02-10T03:53:30;8.00;59.20
67598;DHT22;62026;39.230;9.122;2023-02-10T03:55:57;8.00;58.60
67598;DHT22;62026;39.230;9.122;2023-02-10T03:58:23;8.00;59.00
67598;DHT22;62026;39.230;9.122;2023-02-10T04:00:49;7.90;58.50
67598;DHT22;62026;39.230;9.122;2023-02-10T04:03:15;7.90;58.60
67598;DHT22;62026;39.230;9.122;2023-02-10T04:05:42;7.80;58.60
67598;DHT22;62026;39.230;9.122;2023-02-10T04:08:08;7.80;58.50
67598;DHT22;62026;39.230;9.122;2023-02-10T04:10:35;7.80;58.60
67598;DHT22;62026;39.230;9.122;2023-02-10T04:13:01;7.70;58.60
67598;DHT22;62026;39.230;9.122;2023-02-10T04:15:27;7.70;59.00
67598;DHT22;62026;39.230;9.122;2023-02-10T04:17:53;7.60;58.90
67598;DHT22;62026;39.230;9.122;2023-02-10T04:20:19;7.40;58.80
67598;DHT22;62026;39.230;9.122;2023-02-10T04:22:45;7.40;58.80
67598;DHT22;62026;39.230;9.122;2023-02-10T04:25:11;7.30;58.70
67598;DHT22;62026;39.230;9.122;2023-02-10T04:27:37;7.30;59.30
67598;DHT22;62026;39.230;9.122;2023-02-10T04:30:03;7.30;59.20
67598;DHT22;62026;39.230;9.122;2023-02-10T04:32:30;7.30;59.10
67598;DHT22;62026;39.230;9.122;2023-02-10T04:34:55;7.20;59.60
67598;DHT22;62026;39.230;9.122;2023-02-10T04:37:22;7.10;60.20
67598;DHT22;62026;39.230;9.122;2023-02-10T04:39:48;7.00;60.30
67598;DHT22;62026;39.230;9.122;2023-02-10T04:42:14;6.90;60.80
67598;DHT22;62026;39.230;9.122;2023-02-10T04:44:40;6.80;61.10
67598;DHT22;62026;39.230;9.122;2023-02-10T04:47:06;6.80;61.50
67598;DHT22;62026;39.230;9.122;2023-02-10T04:49:32;6.80;61.80
67598;DHT22;62026;39.230;9.122;2023-02-10T04:51:58;6.80;61.70
67598;DHT22;62026;39.230;9.122;2023-02-10T04:54:24;6.80;61.50
67598;DHT22;62026;39.230;9.122;2023-02-10T04:56:50;6.90;61.60
67598;DHT22;62026;39.230;9.122;2023-02-10T04:59:16;6.90;61.40
67598;DHT22;62026;39.230;9.122;2023-02-10T05:01:42;6.90;61.30
67598;DHT22;62026;39.230;9.122;2023-02-10T05:04:08;7.00;61.40
67598;DHT22;62026;39.230;9.122;2023-02-10T05:06:34;7.00;61.40
67598;DHT22;62026;39.230;9.122;2023-02-10T05:09:01;6.90;61.50
67598;DHT22;62026;39.230;9.122;2023-02-10T05:11:27;6.80;61.30
67598;DHT22;62026;39.230;9.122;2023-02-10T05:13:53;6.90;61.80
67598;DHT22;62026;39.230;9.122;2023-02-10T05:16:19;6.80;61.40
67598;DHT22;62026;39.230;9.122;2023-02-10T05:18:45;6.80;61.50
67598;DHT22;62026;39.230;9.122;2023-02-10T05:21:12;6.90;61.70
67598;DHT22;62026;39.230;9.122;2023-02-10T05:23:39;6.90;62.00
67598;DHT22;62026;39.230;9.122;2023-02-10T05:26:06;6.90;61.70
67598;DHT22;62026;39.230;9.122;2023-02-10T05:28:33;6.80;62.10
67598;DHT22;62026;39.230;9.122;2023-02-10T05:30:58;6.90;61.90
67598;DHT22;62026;39.230;9.122;2023-02-10T05:33:24;6.90;62.00
67598;DHT22;62026;39.230;9.122;2023-02-10T05:35:50;6.80;61.40
67598;DHT22;62026;39.230;9.122;2023-02-10T05:38:16;6.80;61.50
67598;DHT22;62026;39.230;9.122;2023-02-10T05:40:42;6.80;61.50
67598;DHT22;62026;39.230;9.122;2023-02-10T05:43:08;6.80;62.30
67598;DHT22;62026;39.230;9.122;2023-02-10T05:45:35;6.80;62.00
67598;DHT22;62026;39.230;9.122;2023-02-10T05:48:01;6.80;61.50
67598;DHT22;62026;39.230;9.122;2023-02-10T05:50:27;6.70;61.50
67598;DHT22;62026;39.230;9.122;2023-02-10T05:52:55;6.70;61.30
67598;DHT22;62026;39.230;9.122;2023-02-10T05:55:21;6.80;61.30
67598;DHT22;62026;39.230;9.122;2023-02-10T05:57:47;6.80;61.70
67598;DHT22;62026;39.230;9.122;2023-02-10T06:00:14;6.80;61.50
67598;DHT22;62026;39.230;9.122;2023-02-10T06:02:40;6.70;61.70
67598;DHT22;62026;39.230;9.122;2023-02-10T06:05:06;6.70;61.70
67598;DHT22;62026;39.230;9.122;2023-02-10T06:07:32;6.60;61.80
67598;DHT22;62026;39.230;9.122;2023-02-10T06:09:58;6.60;62.00
67598;DHT22;62026;39.230;9.122;2023-02-10T06:12:24;6.60;61.70
67598;DHT22;62026;39.230;9.122;2023-02-10T06:14:50;6.60;62.00
67598;DHT22;62026;39.230;9.122;2023-02-10T06:17:17;6.60;62.00
67598;DHT22;62026;39.230;9.122;2023-02-10T06:19:43;6.60;61.80
67598;DHT22;62026;39.230;9.122;2023-02-10T06:22:09;6.60;62.00
67598;DHT22;62026;39.230;9.122;2023-02-10T06:24:36;6.60;62.10
67598;DHT22;62026;39.230;9.122;2023-02-10T06:27:02;6.60;61.80
67598;DHT22;62026;39.230;9.122;2023-02-10T06:29:28;6.70;61.90
67598;DHT22;62026;39.230;9.122;2023-02-10T06:31:54;6.60;61.80
67598;DHT22;62026;39.230;9.122;2023-02-10T06:34:20;6.50;61.90
67598;DHT22;62026;39.230;9.122;2023-02-10T06:36:46;6.50;61.60
67598;DHT22;62026;39.230;9.122;2023-02-10T06:39:12;6.40;62.00
67598;DHT22;62026;39.230;9.122;2023-02-10T06:41:38;6.50;61.80
67598;DHT22;62026;39.230;9.122;2023-02-10T06:44:05;6.50;61.80
67598;DHT22;62026;39.230;9.122;2023-02-10T06:46:31;6.50;61.80
67598;DHT22;62026;39.230;9.122;2023-02-10T06:48:57;6.50;61.70
67598;DHT22;62026;39.230;9.122;2023-02-10T06:51:25;6.50;61.70
67598;DHT22;62026;39.230;9.122;2023-02-10T06:53:51;6.60;62.10
67598;DHT22;62026;39.230;9.122;2023-02-10T06:56:17;6.70;61.40
67598;DHT22;62026;39.230;9.122;2023-02-10T06:58:43;6.70;61.20
67598;DHT22;62026;39.230;9.122;2023-02-10T07:01:11;6.70;61.10
67598;DHT22;62026;39.230;9.122;2023-02-10T07:03:41;6.70;61.20
67598;DHT22;62026;39.230;9.122;2023-02-10T07:06:07;6.70;61.10
67598;DHT22;62026;39.230;9.122;2023-02-10T07:08:33;6.70;61.10
67598;DHT22;62026;39.230;9.122;2023-02-10T07:10:59;6.80;60.90
67598;DHT22;62026;39.230;9.122;2023-02-10T07:13:25;6.90;61.40
67598;DHT22;62026;39.230;9.122;2023-02-10T07:15:51;6.90;61.10
67598;DHT22;62026;39.230;9.122;2023-02-10T07:18:17;6.90;61.40
67598;DHT22;62026;39.230;9.122;2023-02-10T07:20:43;6.80;61.20
67598;DHT22;62026;39.230;9.122;2023-02-10T07:23:09;6.80;61.20
67598;DHT22;62026;39.230;9.122;2023-02-10T07:25:35;7.30;60.80
67598;DHT22;62026;39.230;9.122;2023-02-10T07:28:01;7.80;59.20
67598;DHT22;62026;39.230;9.122;2023-02-10T07:30:27;8.20;58.20
67598;DHT22;62026;39.230;9.122;2023-02-10T07:32:54;8.50;58.20
67598;DHT22;62026;39.230;9.122;2023-02-10T07:35:20;8.70;57.00
67598;DHT22;62026;39.230;9.122;2023-02-10T07:37:46;8.50;57.10
67598;DHT22;62026;39.230;9.122;2023-02-10T07:40:12;8.10;57.70
67598;DHT22;62026;39.230;9.122;2023-02-10T07:42:38;8.30;57.30
67598;DHT22;62026;39.230;9.122;2023-02-10T07:45:16;8.80;56.40
67598;DHT22;62026;39.230;9.122;2023-02-10T07:47:42;9.30;55.20
67598;DHT22;62026;39.230;9.122;2023-02-10T07:50:08;9.60;54.20
67598;DHT22;62026;39.230;9.122;2023-02-10T07:52:34;9.80;53.70
67598;DHT22;62026;39.230;9.122;2023-02-10T07:55:00;10.00;53.50
67598;DHT22;62026;39.230;9.122;2023-02-10T07:57:28;10.30;53.20
67598;DHT22;62026;39.230;9.122;2023-02-10T07:59:54;10.40;52.60
67598;DHT22;62026;39.230;9.122;2023-02-10T08:02:20;10.70;52.10
67598;DHT22;62026;39.230;9.122;2023-02-10T08:04:46;10.70;51.60
67598;DHT22;62026;39.230;9.122;2023-02-10T08:07:12;11.10;51.60
67598;DHT22;62026;39.230;9.122;2023-02-10T08:09:38;11.50;50.50
67598;DHT22;62026;39.230;9.122;2023-02-10T08:12:04;11.90;49.40
67598;DHT22;62026;39.230;9.122;2023-02-10T08:14:31;11.90;49.20
67598;DHT22;62026;39.230;9.122;2023-02-10T08:16:57;12.20;48.90
67598;DHT22;62026;39.230;9.122;2023-02-10T08:19:23;12.40;48.30
67598;DHT22;62026;39.230;9.122;2023-02-10T08:21:49;12.70;47.70
67598;DHT22;62026;39.230;9.122;2023-02-10T08:24:15;13.20;47.10
67598;DHT22;62026;39.230;9.122;2023-02-10T08:26:41;13.30;46.60
67598;DHT22;62026;39.230;9.122;2023-02-10T08:29:07;13.40;46.40
67598;DHT22;62026;39.230;9.122;2023-02-10T08:31:33;13.50;46.20
67598;DHT22;62026;39.230;9.122;2023-02-10T08:33:59;13.80;46.10
67598;DHT22;62026;39.230;9.122;2023-02-10T08:36:25;14.10;45.80
67598;DHT22;62026;39.230;9.122;2023-02-10T08:38:51;14.50;45.10
67598;DHT22;62026;39.230;9.122;2023-02-10T08:41:17;14.70;44.50
67598;DHT22;62026;39.230;9.122;2023-02-10T08:43:45;14.70;44.70
67598;DHT22;62026;39.230;9.122;2023-02-10T08:46:11;14.60;44.60
67598;DHT22;62026;39.230;9.122;2023-02-10T08:48:37;14.90;44.50
67598;DHT22;62026;39.230;9.122;2023-02-10T08:51:11;14.90;44.10
67598;DHT22;62026;39.230;9.122;2023-02-10T08:53:38;14.80;44.80
67598;DHT22;62026;39.230;9.122;2023-02-10T08:56:07;15.00;44.50
67598;DHT22;62026;39.230;9.122;2023-02-10T08:58:35;15.60;44.20
67598;DHT22;62026;39.230;9.122;2023-02-10T09:01:08;16.30;43.30
67598;DHT22;62026;39.230;9.122;2023-02-10T09:03:37;16.80;42.30
67598;DHT22;62026;39.230;9.122;2023-02-10T09:06:04;17.00;42.00
67598;DHT22;62026;39.230;9.122;2023-02-10T09:08:30;17.00;41.90
67598;DHT22;62026;39.230;9.122;2023-02-10T09:10:56;17.00;41.80
67598;DHT22;62026;39.230;9.122;2023-02-10T09:13:23;17.30;41.60
67598;DHT22;62026;39.230;9.122;2023-02-10T09:15:49;17.60;41.20
67598;DHT22;62026;39.230;9.122;2023-02-10T09:18:15;17.80;41.00
67598;DHT22;62026;39.230;9.122;2023-02-10T09:20:41;17.80;40.80
67598;DHT22;62026;39.230;9.122;2023-02-10T09:23:07;17.80;40.50
67598;DHT22;62026;39.230;9.122;2023-02-10T09:25:33;17.50;40.70
67598;DHT22;62026;39.230;9.122;2023-02-10T09:27:59;17.60;41.10
67598;DHT22;62026;39.230;9.122;2023-02-10T09:30:27;17.70;41.40
67598;DHT22;62026;39.230;9.122;2023-02-10T09:32:54;17.40;40.90
67598;DHT22;62026;39.230;9.122;2023-02-10T09:35:20;16.60;41.80
67598;DHT22;62026;39.230;9.122;2023-02-10T09:37:47;16.40;42.20
67598;DHT22;62026;39.230;9.122;2023-02-10T09:40:25;16.40;42.10
67598;DHT22;62026;39.230;9.122;2023-02-10T09:43:14;16.20;42.70
67598;DHT22;62026;39.230;9.122;2023-02-10T09:46:06;16.30;42.60
67598;DHT22;62026;39.230;9.122;2023-02-10T09:48:55;16.10;43.30
67598;DHT22;62026;39.230;9.122;2023-02-10T09:54:12;16.20;42.90
67598;DHT22;62026;39.230;9.122;2023-02-10T09:56:39;16.10;43.70
67598;DHT22;62026;39.230;9.122;2023-02-10T09:59:07;15.90;43.30
67598;DHT22;62026;39.230;9.122;2023-02-10T10:01:42;16.10;43.20
67598;DHT22;62026;39.230;9.122;2023-02-10T10:04:16;16.00;43.10
67598;DHT22;62026;39.230;9.122;2023-02-10T10:06:47;15.90;43.40
67598;DHT22;62026;39.230;9.122;2023-02-10T10:09:34;15.90;43.20
67598;DHT22;62026;39.230;9.122;2023-02-10T10:12:11;15.60;43.50
67598;DHT22;62026;39.230;9.122;2023-02-10T10:14:43;15.40;43.50
67598;DHT22;62026;39.230;9.122;2023-02-10T10:29:52;15.70;44.40
67598;DHT22;62026;39.230;9.122;2023-02-10T10:32:47;15.70;44.30
67598;DHT22;62026;39.230;9.122;2023-02-10T10:35:22;15.40;44.50
67598;DHT22;62026;39.230;9.122;2023-02-10T10:37:52;15.30;44.10
67598;DHT22;62026;39.230;9.122;2023-02-10T10:40:23;15.10;44.50
67598;DHT22;62026;39.230;9.122;2023-02-10T10:42:56;15.00;44.60
67598;DHT22;62026;39.230;9.122;2023-02-10T10:45:44;14.90;44.10
67598;DHT22;62026;39.230;9.122;2023-02-10T10:48:21;14.90;44.60
67598;DHT22;62026;39.230;9.122;2023-02-10T10:50:58;14.80;45.00
67598;DHT22;62026;39.230;9.122;2023-02-10T10:53:42;15.30;44.60
67598;DHT22;62026;39.230;9.122;2023-02-10T10:58:50;14.90;44.30
67598;DHT22;62026;39.230;9.122;2023-02-10T11:01:18;15.30;44.30
67598;DHT22;62026;39.230;9.122;2023-02-10T11:04:18;15.20;43.80
67598;DHT22;62026;39.230;9.122;2023-02-10T11:06:48;15.10;44.20
67598;DHT22;62026;39.230;9.122;2023-02-10T11:09:32;15.20;44.00
67598;DHT22;62026;39.230;9.122;2023-02-10T11:12:05;15.30;43.80
67598;DHT22;62026;39.230;9.122;2023-02-10T11:14:42;14.90;43.50
67598;DHT22;62026;39.230;9.122;2023-02-10T11:17:36;15.00;44.00
67598;DHT22;62026;39.230;9.122;2023-02-10T11:22:38;15.10;43.30
67598;DHT22;62026;39.230;9.122;2023-02-10T11:27:53;14.50;43.70
67598;DHT22;62026;39.230;9.122;2023-02-10T11:33:00;14.70;43.90
67598;DHT22;62026;39.230;9.122;2023-02-10T11:35:30;14.60;44.10
67598;DHT22;62026;39.230;9.122;2023-02-10T11:38:03;14.70;43.90
67598;DHT22;62026;39.230;9.122;2023-02-10T11:46:15;14.10;44.20
67598;DHT22;62026;39.230;9.122;2023-02-10T11:49:03;14.10;44.60
67598;DHT22;62026;39.230;9.122;2023-02-10T11:51:30;14.00;44.40
67598;DHT22;62026;39.230;9.122;2023-02-10T11:53:57;14.00;44.60
67598;DHT22;62026;39.230;9.122;2023-02-10T12:06:09;13.70;44.90
67598;DHT22;62026;39.230;9.122;2023-02-10T12:26:44;13.50;44.10
67598;DHT22;62026;39.230;9.122;2023-02-10T12:43:59;13.40;44.20
67598;DHT22;62026;39.230;9.122;2023-02-10T12:53:17;13.20;43.70
67598;DHT22;62026;39.230;9.122;2023-02-10T12:56:24;13.30;43.90
67598;DHT22;62026;39.230;9.122;2023-02-10T12:59:11;13.30;44.20
67598;DHT22;62026;39.230;9.122;2023-02-10T13:01:45;13.20;44.30
67598;DHT22;62026;39.230;9.122;2023-02-10T13:04:28;13.20;44.20
67598;DHT22;62026;39.230;9.122;2023-02-10T13:07:01;13.10;44.30
67598;DHT22;62026;39.230;9.122;2023-02-10T13:09:47;13.10;44.60
67598;DHT22;62026;39.230;9.122;2023-02-10T13:12:25;13.20;44.50
67598;DHT22;62026;39.230;9.122;2023-02-10T13:15:24;13.20;44.80
67598;DHT22;62026;39.230;9.122;2023-02-10T13:17:54;13.20;43.70
67598;DHT22;62026;39.230;9.122;2023-02-10T13:20:26;13.20;43.30
67598;DHT22;62026;39.230;9.122;2023-02-10T13:28:36;13.20;43.40
67598;DHT22;62026;39.230;9.122;2023-02-10T13:34:30;13.10;43.60
67598;DHT22;62026;39.230;9.122;2023-02-10T13:39:52;13.10;43.30
67598;DHT22;62026;39.230;9.122;2023-02-10T13:42:30;13.10;44.10
67598;DHT22;62026;39.230;9.122;2023-02-10T13:47:39;13.10;44.00
67598;DHT22;62026;39.230;9.122;2023-02-10T14:00:48;13.10;43.90
67598;DHT22;62026;39.230;9.122;2023-02-10T14:08:43;13.00;43.70
67598;DHT22;62026;39.230;9.122;2023-02-10T14:13:43;13.00;43.60
67598;DHT22;62026;39.230;9.122;2023-02-10T14:16:36;13.00;44.10
67598;DHT22;62026;39.230;9.122;2023-02-10T14:19:19;13.10;44.60
67598;DHT22;62026;39.230;9.122;2023-02-10T14:21:47;13.10;44.30
67598;DHT22;62026;39.230;9.122;2023-02-10T14:24:31;13.10;44.20
67598;DHT22;62026;39.230;9.122;2023-02-10T14:27:02;13.10;43.90
67598;DHT22;62026;39.230;9.122;2023-02-10T14:29:32;13.10;43.90
67598;DHT22;62026;39.230;9.122;2023-02-10T14:32:02;13.10;43.70
67598;DHT22;62026;39.230;9.122;2023-02-10T14:34:35;13.10;43.90
67598;DHT22;62026;39.230;9.122;2023-02-10T14:37:23;13.10;44.10
67598;DHT22;62026;39.230;9.122;2023-02-10T14:42:31;13.00;43.60
67598;DHT22;62026;39.230;9.122;2023-02-10T14:44:59;13.00;44.00
67598;DHT22;62026;39.230;9.122;2023-02-10T14:47:37;13.00;43.80
67598;DHT22;62026;39.230;9.122;2023-02-10T14:50:07;13.00;44.20
67598;DHT22;62026;39.230;9.122;2023-02-10T14:52:45;13.00;43.50
67598;DHT22;62026;39.230;9.122;2023-02-10T14:55:26;13.10;44.00
67598;DHT22;62026;39.230;9.122;2023-02-10T14:58:02;13.00;43.90
67598;DHT22;62026;39.230;9.122;2023-02-10T15:00:33;13.00;43.90
67598;DHT22;62026;39.230;9.122;2023-02-10T15:03:01;13.00;44.40
67598;DHT22;62026;39.230;9.122;2023-02-10T15:05:39;13.00;44.40
67598;DHT22;62026;39.230;9.122;2023-02-10T15:08:16;13.00;44.50
67598;DHT22;62026;39.230;9.122;2023-02-10T15:10:48;13.00;43.80
67598;DHT22;62026;39.230;9.122;2023-02-10T15:13:24;13.00;43.90
67598;DHT22;62026;39.230;9.122;2023-02-10T15:15:57;12.90;44.40
67598;DHT22;62026;39.230;9.122;2023-02-10T15:18:29;13.00;44.70
67598;DHT22;62026;39.230;9.122;2023-02-10T15:21:04;12.90;44.90
67598;DHT22;62026;39.230;9.122;2023-02-10T15:23:32;12.90;45.10
67598;DHT22;62026;39.230;9.122;2023-02-10T15:26:19;12.90;45.40
67598;DHT22;62026;39.230;9.122;2023-02-10T15:29:14;12.90;45.80
67598;DHT22;62026;39.230;9.122;2023-02-10T15:31:42;12.90;46.20
67598;DHT22;62026;39.230;9.122;2023-02-10T15:34:21;12.90;46.20
67598;DHT22;62026;39.230;9.122;2023-02-10T15:37:20;12.90;46.60
67598;DHT22;62026;39.230;9.122;2023-02-10T15:39:56;12.80;46.70
67598;DHT22;62026;39.230;9.122;2023-02-10T15:42:27;12.80;47.10
67598;DHT22;62026;39.230;9.122;2023-02-10T15:45:14;12.80;47.20
67598;DHT22;62026;39.230;9.122;2023-02-10T15:48:38;12.80;48.10
67598;DHT22;62026;39.230;9.122;2023-02-10T15:50:46;12.80;48.00
67598;DHT22;62026;39.230;9.122;2023-02-10T15:53:19;12.80;48.10
67598;DHT22;62026;39.230;9.122;2023-02-10T15:55:47;12.80;48.60
67598;DHT22;62026;39.230;9.122;2023-02-10T15:58:14;12.80;48.30
67598;DHT22;62026;39.230;9.122;2023-02-10T16:00:42;12.80;47.90
67598;DHT22;62026;39.230;9.122;2023-02-10T16:03:11;12.70;48.30
67598;DHT22;62026;39.230;9.122;2023-02-10T16:05:39;12.70;48.40
67598;DHT22;62026;39.230;9.122;2023-02-10T16:08:14;12.70;49.00
67598;DHT22;62026;39.230;9.122;2023-02-10T16:10:45;12.70;49.40
67598;DHT22;62026;39.230;9.122;2023-02-10T16:13:14;12.70;49.90
67598;DHT22;62026;39.230;9.122;2023-02-10T16:15:42;12.70;49.90
67598;DHT22;62026;39.230;9.122;2023-02-10T16:18:13;12.70;49.50
67598;DHT22;62026;39.230;9.122;2023-02-10T16:20:41;12.60;50.40
67598;DHT22;62026;39.230;9.122;2023-02-10T16:23:15;12.60;49.80
67598;DHT22;62026;39.230;9.122;2023-02-10T16:25:45;12.60;49.00
67598;DHT22;62026;39.230;9.122;2023-02-10T16:28:15;12.60;49.40
67598;DHT22;62026;39.230;9.122;2023-02-10T16:30:43;12.60;49.40
67598;DHT22;62026;39.230;9.122;2023-02-10T16:33:10;12.50;49.70
67598;DHT22;62026;39.230;9.122;2023-02-10T16:35:36;12.50;50.00
67598;DHT22;62026;39.230;9.122;2023-02-10T16:38:02;12.50;50.10
67598;DHT22;62026;39.230;9.122;2023-02-10T16:40:34;12.50;50.20
67598;DHT22;62026;39.230;9.122;2023-02-10T16:43:04;12.50;50.40
67598;DHT22;62026;39.230;9.122;2023-02-10T16:45:31;12.50;49.80
67598;DHT22;62026;39.230;9.122;2023-02-10T16:47:59;12.50;50.70
67598;DHT22;62026;39.230;9.122;2023-02-10T16:53:00;12.40;50.80
67598;DHT22;62026;39.230;9.122;2023-02-10T16:55:30;12.40;51.30
67598;DHT22;62026;39.230;9.122;2023-02-10T16:57:56;12.30;50.90
67598;DHT22;62026;39.230;9.122;2023-02-10T17:00:23;12.30;50.80
67598;DHT22;62026;39.230;9.122;2023-02-10T17:02:49;12.20;50.70
67598;DHT22;62026;39.230;9.122;2023-02-10T17:05:17;12.20;51.00
67598;DHT22;62026;39.230;9.122;2023-02-10T17:07:44;12.20;50.80
67598;DHT22;62026;39.230;9.122;2023-02-10T17:10:17;12.20;51.30
67598;DHT22;62026;39.230;9.122;2023-02-10T17:12:46;12.10;51.10
67598;DHT22;62026;39.230;9.122;2023-02-10T17:15:13;12.10;51.10
67598;DHT22;62026;39.230;9.122;2023-02-10T17:17:40;12.00;51.60
67598;DHT22;62026;39.230;9.122;2023-02-10T17:20:16;12.00;51.40
67598;DHT22;62026;39.230;9.122;2023-02-10T17:22:56;11.90;51.80
67598;DHT22;62026;39.230;9.122;2023-02-10T17:25:23;11.90;51.70
67598;DHT22;62026;39.230;9.122;2023-02-10T17:27:51;11.90;52.00
67598;DHT22;62026;39.230;9.122;2023-02-10T17:30:19;11.80;51.80
67598;DHT22;62026;39.230;9.122;2023-02-10T17:32:46;11.80;52.00
67598;DHT22;62026;39.230;9.122;2023-02-10T17:35:16;11.80;52.20
67598;DHT22;62026;39.230;9.122;2023-02-10T17:37:45;11.80;52.30
67598;DHT22;62026;39.230;9.122;2023-02-10T17:40:14;11.70;52.60
67598;DHT22;62026;39.230;9.122;2023-02-10T17:42:49;11.70;53.80
67598;DHT22;62026;39.230;9.122;2023-02-10T17:45:16;12.30;56.70
67598;DHT22;62026;39.230;9.122;2023-02-10T17:47:44;12.20;53.50
67598;DHT22;62026;39.230;9.122;2023-02-10T17:50:15;11.90;52.70
67598;DHT22;62026;39.230;9.122;2023-02-10T17:52:41;11.70;52.70
67598;DHT22;62026;39.230;9.122;2023-02-10T17:55:07;11.60;52.80
67598;DHT22;62026;39.230;9.122;2023-02-10T17:57:33;11.60;53.10
67598;DHT22;62026;39.230;9.122;2023-02-10T17:59:59;11.50;53.20
67598;DHT22;62026;39.230;9.122;2023-02-10T18:02:25;11.50;53.40
67598;DHT22;62026;39.230;9.122;2023-02-10T18:04:51;11.50;53.30
67598;DHT22;62026;39.230;9.122;2023-02-10T18:07:18;11.40;53.40
67598;DHT22;62026;39.230;9.122;2023-02-10T18:09:45;11.40;53.40
67598;DHT22;62026;39.230;9.122;2023-02-10T18:12:11;11.40;53.40
67598;DHT22;62026;39.230;9.122;2023-02-10T18:14:38;11.30;53.40
67598;DHT22;62026;39.230;9.122;2023-02-10T18:17:05;11.30;53.50
67598;DHT22;62026;39.230;9.122;2023-02-10T18:19:36;11.40;53.20
67598;DHT22;62026;39.230;9.122;2023-02-10T18:22:04;11.50;53.10
67598;DHT22;62026;39.230;9.122;2023-02-10T18:24:31;11.50;53.00
67598;DHT22;62026;39.230;9.122;2023-02-10T18:26:57;11.50;53.00
67598;DHT22;62026;39.230;9.122;2023-02-10T18:29:23;11.50;53.00